Time;durP1;ratioP1;P1;durP2;ratioP2;P2;SDS_P1;SDS_P2;PMS_P1;PMS_P2;Temp;Humidity;BMP_temperature;BMP_pressure;BME280_temperature;BME280_humidity;BME280_pressure;Samples;Min_cycle;Max_cycle;Signal;HPM_P1;HPM_P2
2022/01/14 00:00:52;;;;;;;5.87;1.47;;;5.40;99.90;;;;;;10352690;28;20382;-80
2022/01/14 00:06:15;;;;;;;2.57;1.07;;;5.40;99.90;;;;;;10338474;28;20413;-79
2022/01/14 00:11:41;;;;;;;5.40;2.03;;;5.40;99.90;;;;;;10352589;28;20192;-79
2022/01/14 00:17:12;;;;;;;4.17;1.43;;;5.40;99.90;;;;;;10338368;28;20278;-80
2022/01/14 00:22:35;;;;;;;2.77;1.30;;;5.40;99.90;;;;;;10341557;28;20379;-79
2022/01/14 00:33:38;;;;;;;4.53;1.47;;;5.40;99.90;;;;;;10351371;28;20231;-79
2022/01/14 00:39:00;;;;;;;4.97;1.60;;;5.40;99.90;;;;;;10344536;28;20259;-82
2022/01/14 00:44:22;;;;;;;4.93;1.33;;;5.40;99.90;;;;;;10346191;28;20311;-80
2022/01/14 00:49:44;;;;;;;8.73;1.50;;;5.50;99.90;;;;;;10360409;28;20196;-81
2022/01/14 00:55:09;;;;;;;3.10;1.50;;;5.40;99.90;;;;;;10345885;28;20294;-81
2022/01/14 01:00:33;;;;;;;4.33;1.50;;;5.50;99.90;;;;;;10373260;28;20227;-79
2022/01/14 01:05:56;;;;;;;4.63;1.20;;;5.50;99.90;;;;;;10358695;28;20235;-82
2022/01/14 01:11:24;;;;;;;3.83;1.20;;;5.50;99.90;;;;;;10358980;28;20257;-82
2022/01/14 01:16:46;;;;;;;3.83;1.30;;;5.50;99.90;;;;;;10344747;28;20209;-81
2022/01/14 01:22:09;;;;;;;2.13;1.10;;;5.50;99.90;;;;;;10344032;28;20590;-82
2022/01/14 01:27:45;;;;;;;6.23;1.10;;;5.50;99.90;;;;;;10358339;28;20241;-80
2022/01/14 01:33:12;;;;;;;3.43;0.90;;;5.50;99.90;;;;;;10357913;28;20502;-80
2022/01/14 01:38:34;;;;;;;3.10;0.90;;;5.50;99.90;;;;;;10357961;28;20204;-80
2022/01/14 01:43:57;;;;;;;1.97;1.00;;;5.50;99.90;;;;;;10357466;28;20203;-80
2022/01/14 01:49:22;;;;;;;1.47;0.83;;;5.60;99.90;;;;;;10349772;28;20211;-80
2022/01/14 01:54:44;;;;;;;3.47;1.10;;;5.50;99.90;;;;;;10357204;28;20246;-80
2022/01/14 02:00:08;;;;;;;1.70;0.80;;;5.60;99.90;;;;;;10329742;28;20204;-80
2022/01/14 02:05:37;;;;;;;2.63;1.10;;;5.60;99.90;;;;;;10356800;28;20248;-80
2022/01/14 02:11:00;;;;;;;2.00;1.10;;;5.50;99.90;;;;;;10342882;28;20198;-80
2022/01/14 02:16:58;;;;;;;2.30;1.10;;;5.50;99.90;;;;;;10356400;28;20247;-80
2022/01/14 02:22:16;;;;;;;1.67;0.90;;;5.50;99.90;;;;;;10330614;28;20377;-81
2022/01/14 02:27:38;;;;;;;2.17;1.10;;;5.50;99.90;;;;;;10316087;28;20262;-81
2022/01/14 02:33:00;;;;;;;6.87;1.37;;;5.70;99.90;;;;;;10315560;28;20192;-80
2022/01/14 02:38:22;;;;;;;3.47;1.50;;;5.60;99.90;;;;;;10315327;28;20239;-81
2022/01/14 02:43:44;;;;;;;2.63;0.80;;;5.60;99.90;;;;;;10314956;28;20204;-81
2022/01/14 02:49:06;;;;;;;1.13;0.80;;;5.70;99.90;;;;;;10352759;28;20192;-80
2022/01/14 02:54:33;;;;;;;1.33;0.83;;;5.70;99.90;;;;;;10341212;28;20271;-81
2022/01/14 02:59:57;;;;;;;2.47;0.77;;;5.70;99.90;;;;;;10354000;28;20299;-82
2022/01/14 03:05:34;;;;;;;1.10;0.77;;;5.70;99.90;;;;;;10342838;28;20232;-81
2022/01/14 03:11:00;;;;;;;3.23;1.10;;;5.80;99.90;;;;;;10340805;28;20208;-81
2022/01/14 03:16:23;;;;;;;3.07;0.90;;;5.80;99.90;;;;;;10329878;28;20244;-80
2022/01/14 03:21:45;;;;;;;2.53;0.83;;;5.90;99.90;;;;;;10337274;28;20208;-81
2022/01/14 03:27:08;;;;;;;2.27;0.70;;;5.90;99.90;;;;;;10299380;28;20583;-81
2022/01/14 03:32:30;;;;;;;5.23;1.00;;;5.80;99.90;;;;;;10299999;28;20205;-83
2022/01/14 03:37:52;;;;;;;3.90;0.90;;;5.90;99.90;;;;;;10312934;28;20425;-81
2022/01/14 03:43:14;;;;;;;4.93;1.30;;;5.80;99.90;;;;;;10329461;28;20195;-81
2022/01/14 03:48:36;;;;;;;3.87;1.10;;;5.90;99.90;;;;;;10352919;28;20282;-80
2022/01/14 03:53:58;;;;;;;7.00;1.17;;;5.90;99.90;;;;;;10339653;28;20430;-82
2022/01/14 03:59:20;;;;;;;4.93;1.20;;;6.00;99.90;;;;;;10340673;28;20200;-81
2022/01/14 04:04:42;;;;;;;8.40;1.97;;;6.00;99.90;;;;;;10352950;28;20266;-81
2022/01/14 04:10:05;;;;;;;3.37;1.30;;;6.00;99.90;;;;;;10337705;28;20462;-81
2022/01/14 04:15:38;;;;;;;3.83;1.20;;;6.00;99.90;;;;;;10338436;28;20195;-80
2022/01/14 04:21:01;;;;;;;4.07;1.33;;;6.10;99.90;;;;;;10365497;28;20251;-80
2022/01/14 04:26:23;;;;;;;7.60;1.20;;;6.10;99.90;;;;;;10351339;28;20299;-80
2022/01/14 04:31:45;;;;;;;2.03;0.93;;;6.10;99.90;;;;;;10351436;28;20491;-80
2022/01/14 04:37:08;;;;;;;5.60;1.43;;;6.10;99.90;;;;;;10338051;28;20265;-80
2022/01/14 04:42:32;;;;;;;4.87;1.30;;;6.00;99.90;;;;;;10350894;28;20206;-80
2022/01/14 04:47:55;;;;;;;3.63;1.60;;;6.10;99.90;;;;;;10297289;28;20231;-81
2022/01/14 04:53:17;;;;;;;6.50;1.63;;;6.10;99.90;;;;;;10297434;28;20236;-81
2022/01/14 04:58:39;;;;;;;7.57;1.67;;;6.10;99.90;;;;;;10297561;28;20276;-80
2022/01/14 05:04:01;;;;;;;6.13;2.17;;;6.00;99.90;;;;;;10311753;28;20192;-80
2022/01/14 05:09:30;;;;;;;3.37;1.53;;;6.00;99.90;;;;;;10310359;28;20256;-80
2022/01/14 05:14:52;;;;;;;4.87;1.73;;;6.00;99.90;;;;;;10298418;28;20220;-80
2022/01/14 05:20:17;;;;;;;8.13;2.00;;;6.10;99.90;;;;;;10311065;28;20511;-82
2022/01/14 05:25:38;;;;;;;6.23;2.03;;;6.10;99.90;;;;;;10357187;28;20232;-80
2022/01/14 05:31:00;;;;;;;5.33;2.00;;;6.10;99.90;;;;;;10357825;28;20227;-80
2022/01/14 05:36:22;;;;;;;6.07;2.30;;;6.10;99.90;;;;;;10343819;28;20207;-80
2022/01/14 05:41:44;;;;;;;5.67;1.93;;;6.10;99.90;;;;;;10357127;28;20192;-81
2022/01/14 05:47:06;;;;;;;5.80;2.43;;;6.10;99.90;;;;;;10335959;28;20287;-80
2022/01/14 05:52:28;;;;;;;6.73;2.70;;;6.10;99.90;;;;;;10303022;28;20200;-80
2022/01/14 05:57:50;;;;;;;4.00;2.13;;;6.10;99.90;;;;;;10288786;28;20249;-80
2022/01/14 06:03:12;;;;;;;6.87;1.97;;;6.00;99.90;;;;;;10316606;28;20197;-81
2022/01/14 06:08:34;;;;;;;5.53;2.03;;;6.00;99.90;;;;;;10315965;28;20246;-81
2022/01/14 06:13:57;;;;;;;9.10;2.70;;;5.90;99.90;;;;;;10324938;28;20271;-80
2022/01/14 06:19:19;;;;;;;5.43;2.00;;;6.00;99.90;;;;;;10342861;28;20196;-82
2022/01/14 06:24:41;;;;;;;4.73;1.40;;;5.90;99.90;;;;;;10342154;28;20503;-82
2022/01/14 06:30:05;;;;;;;9.00;2.00;;;6.00;99.90;;;;;;10342354;28;20232;-82
2022/01/14 06:35:27;;;;;;;4.27;1.50;;;5.90;99.90;;;;;;10354917;28;20276;-81
2022/01/14 06:40:49;;;;;;;4.53;1.80;;;5.90;99.90;;;;;;10355356;28;20199;-82
2022/01/14 06:46:11;;;;;;;5.07;1.60;;;5.90;99.90;;;;;;10326583;28;20237;-82
2022/01/14 06:51:33;;;;;;;9.27;1.53;;;5.90;99.90;;;;;;10354874;28;20243;-82
2022/01/14 06:56:55;;;;;;;7.00;1.50;;;5.90;99.90;;;;;;10354717;28;20284;-81
2022/01/14 07:02:17;;;;;;;3.83;1.80;;;5.90;99.90;;;;;;10300831;28;20661;-81
2022/01/14 07:07:40;;;;;;;4.03;1.47;;;5.90;99.90;;;;;;10303014;28;20231;-83
2022/01/14 07:13:05;;;;;;;3.30;1.30;;;5.80;99.90;;;;;;10321306;28;20208;-80
2022/01/14 07:18:27;;;;;;;4.43;2.00;;;5.70;99.90;;;;;;10340503;28;20231;-82
2022/01/14 07:23:50;;;;;;;4.67;1.97;;;5.70;99.90;;;;;;10339998;28;20200;-81
2022/01/14 07:29:13;;;;;;;3.87;1.93;;;5.70;99.90;;;;;;10353746;28;20555;-80
2022/01/14 07:34:35;;;;;;;7.03;2.17;;;5.70;99.90;;;;;;10353302;28;20226;-79
2022/01/14 07:39:57;;;;;;;10.97;2.93;;;5.80;99.90;;;;;;10353223;28;20212;-83
2022/01/14 07:45:20;;;;;;;8.87;2.70;;;5.90;99.90;;;;;;10330829;28;20268;-81
2022/01/14 07:50:43;;;;;;;12.40;3.03;;;6.00;99.90;;;;;;10299026;28;20201;-81
2022/01/14 07:56:07;;;;;;;15.70;3.30;;;6.10;99.90;;;;;;10298691;28;20243;-83
2022/01/14 08:01:29;;;;;;;23.57;3.90;;;6.20;99.90;;;;;;10303682;28;20229;-78
2022/01/14 08:06:54;;;;;;;14.27;3.87;;;6.20;99.90;;;;;;10307235;28;20231;-78
2022/01/14 08:12:16;;;;;;;13.97;3.47;;;6.30;99.90;;;;;;10346881;28;20201;-81
2022/01/14 08:17:39;;;;;;;15.37;3.40;;;6.40;99.90;;;;;;10346993;28;20211;-79
2022/01/14 08:23:01;;;;;;;23.03;3.57;;;6.50;99.90;;;;;;10346663;28;20204;-81
2022/01/14 08:28:25;;;;;;;16.23;3.53;;;6.60;99.90;;;;;;10307151;28;20261;-78
2022/01/14 08:33:48;;;;;;;11.87;3.93;;;6.50;99.90;;;;;;10314535;28;20204;-78
2022/01/14 08:39:09;;;;;;;15.33;3.63;;;6.50;99.90;;;;;;10346147;28;20212;-84
2022/01/14 08:44:32;;;;;;;13.73;3.33;;;6.50;99.90;;;;;;10321004;28;20239;-78
2022/01/14 08:49:54;;;;;;;16.07;4.37;;;6.70;99.90;;;;;;10346737;28;20259;-81
2022/01/14 08:55:17;;;;;;;17.60;3.50;;;6.60;99.90;;;;;;10319461;28;20201;-79
2022/01/14 09:00:39;;;;;;;13.73;3.53;;;6.60;99.90;;;;;;10339390;28;20247;-80
2022/01/14 09:06:02;;;;;;;17.23;4.47;;;6.70;99.90;;;;;;10354996;28;20296;-79
2022/01/14 09:11:24;;;;;;;10.93;3.17;;;6.70;99.90;;;;;;10354002;28;20209;-79
2022/01/14 09:16:47;;;;;;;11.70;3.07;;;6.70;99.90;;;;;;10339789;28;20223;-79
2022/01/14 09:22:09;;;;;;;11.87;4.37;;;6.70;99.90;;;;;;10329026;28;20214;-88
2022/01/14 09:27:36;;;;;;;18.40;4.17;;;6.70;99.90;;;;;;10334404;28;20236;-81
2022/01/14 09:32:59;;;;;;;15.23;3.70;;;6.80;99.90;;;;;;10334850;28;20198;-84
2022/01/14 09:38:22;;;;;;;15.43;3.80;;;6.80;99.90;;;;;;10331982;28;20215;-90
2022/01/14 09:43:48;;;;;;;18.83;5.50;;;6.90;99.90;;;;;;10326552;28;20213;-88
2022/01/14 09:49:14;;;;;;;20.30;3.90;;;6.90;99.90;;;;;;10327651;28;20232;-78
2022/01/14 09:54:37;;;;;;;13.90;3.17;;;6.90;99.90;;;;;;10332546;28;20212;-88
2022/01/14 09:59:59;;;;;;;14.13;3.07;;;6.90;99.90;;;;;;10352296;28;20245;-80
2022/01/14 10:05:39;;;;;;;16.23;5.23;;;7.00;99.90;;;;;;10353688;28;20221;-82
2022/01/14 10:11:02;;;;;;;17.50;5.43;;;7.00;99.90;;;;;;10337504;28;20257;-90
2022/01/14 10:16:26;;;;;;;14.13;3.83;;;7.00;99.90;;;;;;10323287;28;20189;-80
2022/01/14 10:21:49;;;;;;;19.03;5.53;;;7.10;99.90;;;;;;10348228;28;20445;-80
2022/01/14 10:27:12;;;;;;;14.57;4.00;;;7.10;99.90;;;;;;10348730;28;20333;-78
2022/01/14 10:32:36;;;;;;;14.97;4.70;;;7.00;99.90;;;;;;10350549;28;20201;-81
2022/01/14 10:38:01;;;;;;;16.43;4.33;;;7.00;99.90;;;;;;10337346;28;20208;-81
2022/01/14 10:43:32;;;;;;;16.67;3.20;;;7.00;99.90;;;;;;10350391;28;20212;-92
2022/01/14 10:48:55;;;;;;;23.00;4.37;;;7.00;99.90;;;;;;10319114;28;20226;-82
2022/01/14 10:54:42;;;;;;;16.70;4.50;;;7.00;99.90;;;;;;10353513;28;20200;-81
2022/01/14 11:00:18;;;;;;;17.03;5.37;;;7.00;99.90;;;;;;10333605;28;20437;-79
2022/01/14 11:05:42;;;;;;;17.37;4.60;;;7.10;99.90;;;;;;10364327;28;20456;-79
2022/01/14 11:11:04;;;;;;;17.43;4.63;;;7.00;99.90;;;;;;10337900;28;20530;-88
2022/01/14 11:16:27;;;;;;;14.97;3.57;;;7.00;99.90;;;;;;10337872;28;20236;-85
2022/01/14 11:27:34;;;;;;;22.17;5.83;;;7.00;99.90;;;;;;10349888;28;20612;-79
2022/01/14 11:33:01;;;;;;;25.10;8.70;;;7.10;99.90;;;;;;10335345;28;20210;-79
2022/01/14 11:38:47;;;;;;;32.40;14.73;;;7.20;99.90;;;;;;10335543;28;20539;-81
2022/01/14 11:44:09;;;;;;;19.23;5.83;;;7.30;99.90;;;;;;10348951;28;20212;-80
2022/01/14 11:49:34;;;;;;;117.57;43.80;;;7.20;99.90;;;;;;10307530;28;20288;-78
2022/01/14 11:54:56;;;;;;;16.17;5.60;;;7.20;99.90;;;;;;10302514;28;20215;-82
2022/01/14 12:00:41;;;;;;;12.10;3.60;;;7.00;99.90;;;;;;10347574;28;20676;-81
2022/01/14 12:06:07;;;;;;;11.67;3.90;;;6.90;99.90;;;;;;10345156;28;20251;-82
2022/01/14 12:11:30;;;;;;;13.90;4.90;;;7.00;99.90;;;;;;10344963;28;20214;-82
2022/01/14 12:17:12;;;;;;;16.60;3.40;;;7.10;99.90;;;;;;10330844;28;20559;-82
2022/01/14 12:22:33;;;;;;;18.77;4.87;;;7.20;99.90;;;;;;10307271;28;20221;-80
2022/01/14 12:27:55;;;;;;;15.17;4.53;;;7.10;99.90;;;;;;10293044;28;20471;-79
2022/01/14 12:33:45;;;;;;;14.03;2.80;;;7.00;99.90;;;;;;10306279;28;20213;-81
2022/01/14 12:39:09;;;;;;;12.13;3.20;;;6.90;99.90;;;;;;10306103;28;20447;-83
2022/01/14 12:44:44;;;;;;;15.57;4.67;;;6.80;99.90;;;;;;10340968;28;20229;-86
2022/01/14 12:50:10;;;;;;;15.50;4.17;;;6.80;99.90;;;;;;10347391;28;20236;-80
2022/01/14 12:55:36;;;;;;;19.57;4.33;;;6.80;99.90;;;;;;10320097;28;20268;-78
2022/01/14 13:01:09;;;;;;;13.83;3.80;;;6.70;99.90;;;;;;10305825;28;20777;-79
2022/01/14 13:06:48;;;;;;;12.30;3.57;;;6.50;99.90;;;;;;10306694;28;20272;-86
2022/01/14 13:12:13;;;;;;;17.40;3.10;;;6.40;99.90;;;;;;10331725;28;20243;-81
2022/01/14 13:17:43;;;;;;;19.57;4.10;;;6.30;99.90;;;;;;10348509;28;20204;-81
2022/01/14 13:23:07;;;;;;;15.40;4.63;;;6.30;99.90;;;;;;10316698;28;20217;-80
2022/01/14 13:28:30;;;;;;;14.43;3.93;;;6.20;99.90;;;;;;10345614;28;20243;-80
2022/01/14 13:33:52;;;;;;;9.30;2.60;;;6.20;99.90;;;;;;10346416;28;20255;-80
2022/01/14 13:39:14;;;;;;;19.03;4.23;;;6.10;99.90;;;;;;10346481;28;20387;-83
2022/01/14 13:44:36;;;;;;;18.07;3.70;;;6.10;99.90;;;;;;10346726;28;20201;-86
2022/01/14 13:50:16;;;;;;;12.03;3.40;;;6.10;99.90;;;;;;10312247;28;20225;-82
2022/01/14 13:55:47;;;;;;;17.73;3.70;;;5.90;99.90;;;;;;10327855;28;20245;-83
2022/01/14 14:01:10;;;;;;;13.80;3.67;;;5.90;99.90;;;;;;10325942;28;20212;-82
2022/01/14 14:06:44;;;;;;;18.67;4.10;;;5.80;99.90;;;;;;10338105;28;20575;-82
2022/01/14 14:12:36;;;;;;;13.77;3.53;;;5.70;99.90;;;;;;10365880;28;20203;-85
2022/01/14 14:18:08;;;;;;;14.67;3.47;;;5.70;99.90;;;;;;10352560;28;20545;-84
2022/01/14 14:23:32;;;;;;;12.00;2.67;;;5.50;99.90;;;;;;10328583;28;20512;-78
2022/01/14 14:28:54;;;;;;;15.40;3.17;;;5.50;99.90;;;;;;10313433;28;20255;-79
2022/01/14 14:34:16;;;;;;;24.70;5.83;;;5.30;99.90;;;;;;10307077;28;20220;-80
2022/01/14 14:39:39;;;;;;;16.83;4.43;;;5.20;99.90;;;;;;10329813;28;20205;-80
2022/01/14 14:45:01;;;;;;;22.10;4.67;;;5.10;99.90;;;;;;10315867;28;20247;-79
2022/01/14 14:50:27;;;;;;;47.10;8.83;;;5.00;99.90;;;;;;10334659;28;20231;-80
2022/01/14 14:55:49;;;;;;;15.97;4.57;;;5.00;99.90;;;;;;10297009;28;20244;-80
2022/01/14 15:01:11;;;;;;;15.07;3.50;;;4.80;99.90;;;;;;10331212;28;20220;-79
2022/01/14 15:06:33;;;;;;;13.50;4.77;;;4.80;99.90;;;;;;10324985;28;20639;-79
2022/01/14 15:11:56;;;;;;;17.20;4.57;;;4.70;99.90;;;;;;10322662;28;20275;-79
2022/01/14 15:22:42;;;;;;;14.67;4.57;;;4.60;99.90;;;;;;10337498;28;20213;-80
2022/01/14 15:28:05;;;;;;;13.27;4.03;;;4.50;99.90;;;;;;10336196;28;20231;-81
2022/01/14 15:33:30;;;;;;;17.70;4.17;;;4.50;99.90;;;;;;10326731;28;20196;-80
2022/01/14 15:38:53;;;;;;;16.40;5.60;;;4.40;99.90;;;;;;10323910;28;20249;-80
2022/01/14 15:44:19;;;;;;;12.60;3.97;;;4.30;99.90;;;;;;10330428;28;20206;-78
2022/01/14 15:49:42;;;;;;;19.60;6.87;;;4.20;99.90;;;;;;10331753;28;20284;-81
2022/01/14 15:55:05;;;;;;;16.50;4.47;;;4.10;99.90;;;;;;10337698;28;20211;-79
2022/01/14 16:00:27;;;;;;;12.10;5.63;;;4.10;99.90;;;;;;10323839;28;20440;-81
2022/01/14 16:05:49;;;;;;;25.80;7.00;;;4.00;99.90;;;;;;10330122;28;20226;-78
2022/01/14 16:11:14;;;;;;;16.93;5.20;;;4.00;99.90;;;;;;10317525;28;20218;-78
2022/01/14 16:16:36;;;;;;;19.07;7.10;;;4.00;99.90;;;;;;10303945;28;20206;-78
2022/01/14 16:22:02;;;;;;;15.90;7.47;;;4.00;99.90;;;;;;10322355;28;20212;-78
2022/01/14 16:27:24;;;;;;;17.73;6.70;;;3.90;99.90;;;;;;10329199;28;20291;-82
2022/01/14 16:32:47;;;;;;;16.57;6.03;;;3.90;99.90;;;;;;10325443;28;20202;-78
2022/01/14 16:38:10;;;;;;;15.07;4.73;;;3.90;99.90;;;;;;10310538;28;20198;-78
2022/01/14 16:43:34;;;;;;;14.57;4.53;;;3.70;99.90;;;;;;10335718;28;20255;-78
2022/01/14 16:48:57;;;;;;;16.97;5.93;;;3.80;99.90;;;;;;10317066;28;20232;-81
2022/01/14 16:54:21;;;;;;;14.93;5.37;;;3.70;99.90;;;;;;10322703;28;20367;-82
2022/01/14 16:59:43;;;;;;;25.17;7.57;;;3.70;99.90;;;;;;10320020;28;20231;-79
2022/01/14 17:05:07;;;;;;;28.10;11.20;;;3.60;99.90;;;;;;10350174;28;20707;-83
2022/01/14 17:10:30;;;;;;;28.53;10.77;;;3.60;99.90;;;;;;10349686;28;20227;-79
2022/01/14 17:15:52;;;;;;;37.27;14.13;;;3.60;99.90;;;;;;10337195;28;20190;-81
2022/01/14 17:21:26;;;;;;;23.20;7.80;;;3.50;99.90;;;;;;10355902;28;20213;-84
2022/01/14 17:26:48;;;;;;;40.90;11.37;;;3.50;99.90;;;;;;10357472;28;20227;-81
2022/01/14 17:32:10;;;;;;;14.10;5.90;;;3.50;99.90;;;;;;10342276;28;20206;-80
2022/01/14 17:37:33;;;;;;;12.03;4.37;;;3.50;99.90;;;;;;10357977;28;20219;-81
2022/01/14 17:42:55;;;;;;;26.17;8.50;;;3.50;99.90;;;;;;10344818;28;20195;-82
2022/01/14 17:48:17;;;;;;;27.87;8.23;;;3.50;99.90;;;;;;10331022;28;20222;-82
2022/01/14 17:53:39;;;;;;;35.67;10.80;;;3.40;99.90;;;;;;10330647;28;20225;-81
2022/01/14 17:59:02;;;;;;;46.30;12.60;;;3.30;99.90;;;;;;10356862;28;20242;-81
2022/01/14 18:04:24;;;;;;;35.50;11.30;;;3.40;99.90;;;;;;10357058;28;20201;-81
2022/01/14 18:09:47;;;;;;;34.90;11.93;;;3.30;99.90;;;;;;10329434;28;20237;-79
2022/01/14 18:15:09;;;;;;;26.40;9.77;;;3.30;99.90;;;;;;10343161;28;20230;-80
2022/01/14 18:20:32;;;;;;;18.33;5.43;;;3.20;99.90;;;;;;10329343;28;20303;-79
2022/01/14 18:25:53;;;;;;;12.30;3.93;;;3.20;99.90;;;;;;10332116;28;20258;-78
2022/01/14 18:31:15;;;;;;;16.87;5.90;;;3.20;99.90;;;;;;10315427;28;20234;-83
2022/01/14 18:36:38;;;;;;;12.77;4.53;;;3.20;99.90;;;;;;10319162;28;20448;-82
2022/01/14 18:42:00;;;;;;;14.60;4.27;;;3.20;99.90;;;;;;10356190;28;20229;-82
2022/01/14 18:47:22;;;;;;;9.87;3.20;;;3.10;99.90;;;;;;10356523;28;20221;-83
2022/01/14 18:52:44;;;;;;;16.67;4.17;;;3.10;99.90;;;;;;10356130;28;20258;-80
2022/01/14 18:58:06;;;;;;;13.37;5.10;;;3.10;99.90;;;;;;10355102;28;20242;-81
2022/01/14 19:03:28;;;;;;;11.50;4.23;;;3.20;99.90;;;;;;10354899;28;20302;-82
2022/01/14 19:08:51;;;;;;;11.53;2.90;;;3.10;99.90;;;;;;10327780;28;20230;-81
2022/01/14 19:14:13;;;;;;;13.40;3.83;;;3.00;99.90;;;;;;10354910;28;20369;-80
2022/01/14 19:19:35;;;;;;;35.63;10.83;;;3.00;99.90;;;;;;10354132;28;20502;-80
2022/01/14 19:24:58;;;;;;;11.87;4.20;;;3.10;99.90;;;;;;10353890;28;20278;-82
2022/01/14 19:30:20;;;;;;;14.27;5.07;;;3.00;99.90;;;;;;10353882;28;20269;-81
2022/01/14 19:35:42;;;;;;;19.07;5.27;;;3.00;99.90;;;;;;10354607;28;20495;-81
2022/01/14 19:41:04;;;;;;;17.40;4.77;;;3.00;99.90;;;;;;10339076;28;20241;-80
2022/01/14 19:46:29;;;;;;;16.20;5.47;;;2.90;99.90;;;;;;10339326;28;20284;-82
2022/01/14 19:51:52;;;;;;;12.77;4.07;;;2.90;99.90;;;;;;10366747;28;20208;-84
2022/01/14 19:57:13;;;;;;;9.30;3.17;;;2.90;99.90;;;;;;10352229;28;20250;-80
2022/01/14 20:02:35;;;;;;;15.20;4.33;;;2.90;99.90;;;;;;10339014;28;20528;-81
2022/01/14 20:07:58;;;;;;;12.20;3.40;;;2.90;99.90;;;;;;10338201;28;20230;-82
2022/01/14 20:13:31;;;;;;;9.93;3.07;;;2.90;99.90;;;;;;10338866;28;20214;-80
2022/01/14 20:18:56;;;;;;;17.37;4.37;;;2.80;99.90;;;;;;10325013;28;20242;-81
2022/01/14 20:24:19;;;;;;;16.63;4.77;;;2.80;99.90;;;;;;10351822;28;20584;-80
2022/01/14 20:29:42;;;;;;;14.97;4.80;;;2.80;99.90;;;;;;10338103;28;20350;-80
2022/01/14 20:35:05;;;;;;;13.47;4.10;;;2.80;99.90;;;;;;10352535;28;20489;-81
2022/01/14 20:40:27;;;;;;;13.47;4.43;;;2.70;99.90;;;;;;10324568;28;20527;-80
2022/01/14 20:45:49;;;;;;;9.53;3.87;;;2.70;99.90;;;;;;10337855;28;20394;-82
2022/01/14 20:51:11;;;;;;;13.73;3.80;;;2.70;99.90;;;;;;10337689;28;20268;-81
2022/01/14 20:56:34;;;;;;;12.97;4.40;;;2.70;99.90;;;;;;10345339;28;20272;-80
2022/01/14 21:01:57;;;;;;;14.43;4.63;;;2.70;99.90;;;;;;10360574;28;20191;-80
2022/01/14 21:07:19;;;;;;;17.20;3.67;;;2.60;99.90;;;;;;10345557;28;20230;-79
2022/01/14 21:12:42;;;;;;;13.40;4.73;;;2.60;99.90;;;;;;10359306;28;20241;-81
2022/01/14 21:18:05;;;;;;;11.70;4.50;;;2.60;99.90;;;;;;10345328;28;20249;-78
2022/01/14 21:23:30;;;;;;;21.13;5.40;;;2.50;99.90;;;;;;10325550;28;20202;-79
2022/01/14 21:28:52;;;;;;;15.33;3.37;;;2.60;99.90;;;;;;10318131;28;20423;-79
2022/01/14 21:34:15;;;;;;;13.13;4.37;;;2.50;99.90;;;;;;10329153;28;20205;-80
2022/01/14 21:39:38;;;;;;;14.70;3.93;;;2.50;99.90;;;;;;10358417;28;20559;-78
2022/01/14 21:45:00;;;;;;;12.43;3.73;;;2.50;99.90;;;;;;10358085;28;20217;-79
2022/01/14 21:50:22;;;;;;;13.80;5.20;;;2.50;99.90;;;;;;10330527;28;20236;-81
2022/01/14 21:55:44;;;;;;;15.13;4.20;;;2.50;99.90;;;;;;10357313;28;20238;-80
2022/01/14 22:01:07;;;;;;;11.73;3.83;;;2.40;99.90;;;;;;10357452;28;20233;-80
2022/01/14 22:06:29;;;;;;;8.33;3.37;;;2.40;99.90;;;;;;10342998;28;20270;-79
2022/01/14 22:11:51;;;;;;;9.27;3.93;;;2.40;99.90;;;;;;10356649;28;20409;-83
2022/01/14 22:17:14;;;;;;;19.83;4.20;;;2.30;99.90;;;;;;10347250;28;20199;-82
2022/01/14 22:22:39;;;;;;;22.10;7.80;;;2.30;99.90;;;;;;10329293;28;20425;-82
2022/01/14 22:28:02;;;;;;;11.80;3.27;;;2.20;99.90;;;;;;10342685;28;20302;-80
2022/01/14 22:33:25;;;;;;;13.00;3.60;;;2.20;99.90;;;;;;10342426;28;20256;-79
2022/01/14 22:38:47;;;;;;;12.73;3.60;;;2.20;99.90;;;;;;10342278;28;20198;-79
2022/01/14 22:44:09;;;;;;;21.47;5.87;;;2.20;99.90;;;;;;10328108;28;20225;-79
2022/01/14 22:49:31;;;;;;;12.83;5.67;;;2.10;99.90;;;;;;10315074;28;20223;-80
2022/01/14 22:54:53;;;;;;;13.73;3.53;;;2.10;99.90;;;;;;10301557;28;20211;-83
2022/01/14 23:00:20;;;;;;;13.50;4.13;;;2.10;99.90;;;;;;10288027;28;20257;-79
2022/01/14 23:05:43;;;;;;;9.37;3.70;;;2.10;99.90;;;;;;10329077;28;20198;-78
2022/01/14 23:11:06;;;;;;;10.87;2.70;;;2.10;99.90;;;;;;10354732;28;20453;-79
2022/01/14 23:16:29;;;;;;;9.77;2.80;;;2.00;99.90;;;;;;10326138;28;20202;-83
2022/01/14 23:21:51;;;;;;;8.33;3.20;;;2.00;99.90;;;;;;10333068;28;20210;-80
2022/01/14 23:27:13;;;;;;;12.60;3.93;;;2.00;99.90;;;;;;10313789;28;20273;-81
2022/01/14 23:32:34;;;;;;;12.93;3.13;;;1.90;99.90;;;;;;10300221;28;20218;-80
2022/01/14 23:37:57;;;;;;;11.40;3.17;;;1.90;99.90;;;;;;10286638;28;20225;-81
2022/01/14 23:43:22;;;;;;;14.57;3.93;;;2.00;99.90;;;;;;10303423;28;20392;-81
2022/01/14 23:48:44;;;;;;;9.67;2.67;;;1.90;99.90;;;;;;10317892;28;20748;-80
2022/01/14 23:54:08;;;;;;;9.83;3.30;;;1.80;99.90;;;;;;10299322;28;20204;-80
2022/01/14 23:59:31;;;;;;;13.40;2.90;;;1.80;99.90;;;;;;10312374;28;20242;-79
